Time;durP1;ratioP1;P1;durP2;ratioP2;P2;SDS_P1;SDS_P2;PMS_P1;PMS_P2;Temp;Humidity;BMP_temperature;BMP_pressure;BME280_temperature;BME280_humidity;BME280_pressure;Samples;Min_cycle;Max_cycle;Signal;HPM_P1;HPM_P2
2024/01/23 00:01:25;;;;;;;4.47;1.50;;;;;;;7.52;100.00;100991.31;4914816;29;20187;-78
2024/01/23 00:03:50;;;;;;;4.10;1.20;;;;;;;7.48;100.00;100988.69;4911646;29;20585;-78
2024/01/23 00:06:16;;;;;;;6.27;1.90;;;;;;;7.48;100.00;100992.97;4916885;29;20187;-77
2024/01/23 00:08:41;;;;;;;5.40;1.70;;;;;;;7.58;100.00;100991.38;4924697;29;20184;-77
2024/01/23 00:11:06;;;;;;;3.80;1.40;;;;;;;7.51;100.00;100990.44;4913462;29;20216;-79
2024/01/23 00:13:32;;;;;;;3.03;1.40;;;;;;;7.52;100.00;100992.16;4913783;29;20253;-77
2024/01/23 00:15:57;;;;;;;4.50;1.63;;;;;;;7.53;100.00;100990.47;4914578;29;20563;-78
2024/01/23 00:18:23;;;;;;;6.40;2.17;;;;;;;7.52;100.00;100996.47;4911304;29;20226;-78
2024/01/23 00:20:48;;;;;;;7.73;1.60;;;;;;;7.56;100.00;100995.66;4928196;29;20187;-77
2024/01/23 00:23:13;;;;;;;4.40;1.70;;;;;;;7.55;100.00;100981.06;4929389;29;20267;-78
2024/01/23 00:25:39;;;;;;;6.80;1.93;;;;;;;7.62;100.00;100978.59;4927324;29;20191;-78
2024/01/23 00:28:06;;;;;;;4.97;1.80;;;;;;;7.66;100.00;100986.34;4924263;29;20203;-77
2024/01/23 00:30:31;;;;;;;7.27;1.73;;;;;;;7.70;100.00;100988.13;4925672;29;20214;-78
2024/01/23 00:32:56;;;;;;;7.23;2.33;;;;;;;7.73;100.00;100993.31;4927193;29;20494;-79
2024/01/23 00:35:22;;;;;;;6.20;2.03;;;;;;;7.75;100.00;101005.38;4929120;29;20238;-77
2024/01/23 00:37:47;;;;;;;4.53;1.80;;;;;;;7.77;100.00;100997.69;4931542;29;20219;-77
2024/01/23 00:40:12;;;;;;;7.17;2.10;;;;;;;7.78;100.00;101010.59;4931472;29;20187;-78
2024/01/23 00:42:38;;;;;;;6.80;1.83;;;;;;;7.79;100.00;101021.75;4932360;29;20194;-77
2024/01/23 00:45:03;;;;;;;4.37;1.90;;;;;;;7.74;100.00;101008.81;4926379;29;20834;-77
2024/01/23 00:47:30;;;;;;;6.30;1.73;;;;;;;7.71;100.00;101008.78;4930236;29;20239;-78
2024/01/23 00:49:56;;;;;;;4.23;1.60;;;;;;;7.70;100.00;100998.44;4928286;29;20199;-78
2024/01/23 00:52:21;;;;;;;3.97;1.40;;;;;;;7.70;100.00;100996.75;4925521;29;20198;-78
2024/01/23 00:54:46;;;;;;;5.00;1.43;;;;;;;7.68;100.00;101000.13;4927465;29;20187;-79
2024/01/23 00:57:12;;;;;;;5.20;1.73;;;;;;;7.67;100.00;100995.81;4925044;29;20249;-77
2024/01/23 00:59:37;;;;;;;7.77;2.07;;;;;;;7.70;100.00;100985.56;4928197;29;20183;-77
2024/01/23 01:02:03;;;;;;;5.73;1.70;;;;;;;7.69;100.00;100994.13;4927567;29;20192;-78
2024/01/23 01:04:28;;;;;;;6.70;1.93;;;;;;;7.64;100.00;100983.75;4912115;29;20199;-77
2024/01/23 01:06:53;;;;;;;6.27;1.87;;;;;;;7.64;100.00;100994.06;4927273;29;20215;-78
2024/01/23 01:09:19;;;;;;;5.93;1.90;;;;;;;7.59;100.00;100991.44;4925403;29;20639;-77
2024/01/23 01:11:45;;;;;;;3.77;2.07;;;;;;;7.61;100.00;100988.84;4928778;29;20294;-77
2024/01/23 01:14:10;;;;;;;4.90;1.70;;;;;;;7.55;100.00;100988.78;4927630;29;20302;-78
2024/01/23 01:16:36;;;;;;;7.23;2.13;;;;;;;7.51;100.00;100999.88;4927666;29;20229;-77
2024/01/23 01:19:01;;;;;;;6.10;1.83;;;;;;;7.55;100.00;101007.66;4926783;29;20194;-77
2024/01/23 01:21:26;;;;;;;4.63;2.00;;;;;;;7.56;100.00;101004.25;4928781;29;20208;-78
2024/01/23 01:23:52;;;;;;;4.60;1.90;;;;;;;7.56;100.00;101005.97;4921739;29;20199;-77
2024/01/23 01:26:17;;;;;;;7.23;2.17;;;;;;;7.53;100.00;101004.19;4924159;29;20188;-77
2024/01/23 01:28:43;;;;;;;6.17;2.00;;;;;;;7.47;100.00;101014.44;4924745;29;20333;-77
2024/01/23 01:31:08;;;;;;;9.47;2.80;;;;;;;7.45;100.00;101016.97;4924444;29;20203;-77
2024/01/23 01:33:33;;;;;;;8.00;2.70;;;;;;;7.41;100.00;101014.31;4909065;29;20192;-79
2024/01/23 01:35:59;;;;;;;6.27;2.53;;;;;;;7.36;100.00;101010.78;4929043;29;20191;-77
2024/01/23 01:38:24;;;;;;;10.27;3.17;;;;;;;7.37;100.00;101028.88;4926208;29;20296;-78
2024/01/23 01:40:49;;;;;;;9.80;2.97;;;;;;;7.33;100.00;101030.50;4927146;29;20722;-77
2024/01/23 01:43:42;;;;;;;10.17;2.90;;;;;;;7.29;100.00;101036.47;4924160;29;20194;-78
2024/01/23 01:46:18;;;;;;;8.53;3.13;;;;;;;7.21;100.00;101037.16;4921982;29;21047;-77
2024/01/23 01:48:46;;;;;;;10.17;3.20;;;;;;;7.17;100.00;101047.41;4918609;29;20214;-77
2024/01/23 01:51:11;;;;;;;10.07;2.70;;;;;;;7.15;100.00;101053.38;4928314;29;20969;-78
2024/01/23 01:53:39;;;;;;;9.30;3.13;;;;;;;7.10;100.00;101057.56;4911472;29;20198;-77
2024/01/23 01:56:06;;;;;;;7.53;2.77;;;;;;;7.06;100.00;101068.66;4912474;29;20195;-76
2024/01/23 01:58:32;;;;;;;10.17;2.80;;;;;;;7.00;100.00;101065.13;4925972;29;20217;-77
2024/01/23 02:00:59;;;;;;;11.13;3.03;;;;;;;6.94;100.00;101059.00;4927091;29;20195;-77
2024/01/23 02:03:25;;;;;;;9.47;2.67;;;;;;;6.96;100.00;101067.59;4930318;29;20677;-76
2024/01/23 02:05:51;;;;;;;8.33;2.70;;;;;;;7.00;100.00;101077.13;4929853;29;20195;-77
2024/01/23 02:08:16;;;;;;;9.83;3.73;;;;;;;7.02;100.00;101075.44;4928768;29;20210;-77
2024/01/23 02:10:43;;;;;;;11.27;3.40;;;;;;;7.10;100.00;101073.91;4926755;29;20191;-77
2024/01/23 02:13:08;;;;;;;8.67;3.13;;;;;;;7.12;100.00;101073.91;4923302;29;20191;-77
2024/01/23 02:15:34;;;;;;;12.00;3.57;;;;;;;7.17;100.00;101075.72;4927063;29;20708;-77
2024/01/23 02:18:00;;;;;;;7.80;2.87;;;;;;;7.23;100.00;101079.25;4929288;29;20234;-77
2024/01/23 02:20:25;;;;;;;8.93;3.40;;;;;;;7.30;100.00;101088.81;4923652;29;20246;-77
2024/01/23 02:22:52;;;;;;;10.40;3.07;;;;;;;7.36;100.00;101086.34;4926171;29;20195;-77
2024/01/23 02:25:17;;;;;;;8.93;3.13;;;;;;;7.38;100.00;101081.22;4921680;29;20186;-78
2024/01/23 02:27:42;;;;;;;11.87;3.90;;;;;;;7.42;100.00;101083.88;4927937;29;20467;-77
2024/01/23 02:30:08;;;;;;;9.47;2.77;;;;;;;7.44;100.00;101087.34;4927350;29;20192;-77
2024/01/23 02:32:33;;;;;;;8.23;2.80;;;;;;;7.45;100.00;101089.06;4927560;29;20200;-77
2024/01/23 02:34:59;;;;;;;13.63;4.30;;;;;;;7.51;100.00;101083.16;4930553;29;20206;-77
2024/01/23 02:37:24;;;;;;;10.07;3.40;;;;;;;7.53;100.00;101078.03;4931248;29;20223;-78
2024/01/23 02:39:49;;;;;;;11.77;3.83;;;;;;;7.60;100.00;101069.56;4917086;29;20191;-77
2024/01/23 02:42:15;;;;;;;8.97;3.00;;;;;;;7.53;100.00;101076.31;4931773;29;20186;-78
2024/01/23 02:44:45;;;;;;;8.30;2.40;;;;;;;7.52;100.00;101079.75;4933148;29;20217;-77
2024/01/23 02:47:10;;;;;;;9.37;3.20;;;;;;;7.52;100.00;101084.88;4914864;29;20598;-77
2024/01/23 02:49:36;;;;;;;8.73;2.80;;;;;;;7.52;100.00;101081.47;4931649;29;20207;-78
2024/01/23 02:52:03;;;;;;;9.07;3.33;;;;;;;7.55;100.00;101089.25;4928332;29;20187;-77
2024/01/23 02:54:30;;;;;;;14.50;3.70;;;;;;;7.56;100.00;101090.97;4932192;29;20625;-77
2024/01/23 02:56:55;;;;;;;9.57;2.87;;;;;;;7.55;100.00;101090.09;4929948;29;20219;-78
2024/01/23 02:59:20;;;;;;;12.30;3.37;;;;;;;7.59;100.00;101080.69;4928208;29;21136;-77
2024/01/23 03:01:45;;;;;;;7.77;3.33;;;;;;;7.60;100.00;101077.28;4927784;29;20222;-77
2024/01/23 03:04:11;;;;;;;8.57;3.30;;;;;;;7.57;100.00;101085.84;4925797;29;20195;-77
2024/01/23 03:06:36;;;;;;;11.27;3.70;;;;;;;7.60;100.00;101095.31;4916341;29;20225;-77
2024/01/23 03:09:02;;;;;;;7.37;2.70;;;;;;;7.57;100.00;101100.41;4931013;29;20319;-78
2024/01/23 03:11:28;;;;;;;10.03;3.23;;;;;;;7.56;100.00;101107.28;4928306;29;20627;-78
2024/01/23 03:13:53;;;;;;;10.17;3.20;;;;;;;7.59;100.00;101114.19;4931386;29;20194;-78
2024/01/23 03:16:18;;;;;;;11.63;3.80;;;;;;;7.59;100.00;101112.50;4928836;29;20195;-77
2024/01/23 03:18:44;;;;;;;12.97;3.60;;;;;;;7.62;100.00;101104.81;4929322;29;20199;-77
2024/01/23 03:21:09;;;;;;;8.70;3.33;;;;;;;7.58;100.00;101117.59;4921512;29;20278;-77
2024/01/23 03:23:34;;;;;;;11.77;3.43;;;;;;;7.52;100.00;101125.25;4931833;29;20284;-77
2024/01/23 03:26:00;;;;;;;8.30;2.90;;;;;;;7.54;100.00;101141.59;4926146;29;20763;-77
2024/01/23 03:28:25;;;;;;;12.37;3.17;;;;;;;7.57;100.00;101136.47;4931130;29;20218;-77
2024/01/23 03:30:50;;;;;;;10.30;2.87;;;;;;;7.52;100.00;101148.44;4931347;29;20270;-77
2024/01/23 03:33:15;;;;;;;8.67;3.00;;;;;;;7.60;100.00;101141.69;4943776;29;20188;-77
2024/01/23 03:35:41;;;;;;;8.60;3.23;;;;;;;7.59;100.00;101146.00;4931046;29;20192;-77
2024/01/23 03:38:06;;;;;;;9.17;3.40;;;;;;;7.59;100.00;101153.72;4912820;29;20219;-78
2024/01/23 03:40:31;;;;;;;12.47;2.83;;;;;;;7.62;100.00;101147.75;4931122;29;20187;-77
2024/01/23 03:42:57;;;;;;;7.53;2.90;;;;;;;7.63;100.00;101154.63;4912807;29;20828;-79
2024/01/23 03:45:22;;;;;;;10.30;3.13;;;;;;;7.64;100.00;101151.22;4929206;29;20633;-77
2024/01/23 03:47:47;;;;;;;10.37;2.90;;;;;;;7.67;100.00;101160.69;4927499;29;20235;-78
2024/01/23 03:50:12;;;;;;;10.47;3.67;;;;;;;7.66;100.00;101161.53;4929402;29;20202;-78
2024/01/23 03:52:38;;;;;;;8.33;2.67;;;;;;;7.64;100.00;101169.25;4931010;29;20692;-77
2024/01/23 03:55:03;;;;;;;10.30;4.03;;;;;;;7.63;100.00;101168.38;4928251;29;20249;-77
2024/01/23 03:57:29;;;;;;;10.13;3.20;;;;;;;7.61;100.00;101166.59;4915680;29;20306;-78
2024/01/23 03:59:54;;;;;;;14.20;4.23;;;;;;;7.61;100.00;101164.03;4930316;29;20210;-77
2024/01/23 04:02:22;;;;;;;10.63;3.60;;;;;;;7.57;100.00;101160.53;4928135;29;20563;-78
2024/01/23 04:04:48;;;;;;;9.20;2.67;;;;;;;7.56;100.00;101160.53;4930485;29;20661;-77
2024/01/23 04:07:13;;;;;;;9.43;2.87;;;;;;;7.54;100.00;101162.22;4928948;29;20270;-78
2024/01/23 04:09:38;;;;;;;8.77;2.90;;;;;;;7.53;100.00;101173.34;4923773;29;20189;-77
2024/01/23 04:12:04;;;;;;;8.87;2.83;;;;;;;7.51;100.00;101178.44;4916241;29;21000;-77
2024/01/23 04:14:29;;;;;;;8.67;3.37;;;;;;;7.52;100.00;101184.50;4928328;29;20192;-77
2024/01/23 04:16:54;;;;;;;11.20;3.93;;;;;;;7.52;100.00;101192.22;4929010;29;20252;-78
2024/01/23 04:19:20;;;;;;;9.90;2.80;;;;;;;7.49;100.00;101187.84;4912381;29;20903;-76
2024/01/23 04:21:46;;;;;;;6.93;2.73;;;;;;;7.50;100.00;101194.75;4927571;29;20216;-77
2024/01/23 04:24:11;;;;;;;8.23;3.13;;;;;;;7.49;100.00;101195.59;4928937;29;20187;-77
2024/01/23 04:26:38;;;;;;;8.10;3.13;;;;;;;7.49;100.00;101187.84;4911436;29;20591;-78
2024/01/23 04:29:03;;;;;;;8.87;3.20;;;;;;;7.47;100.00;101203.28;4929951;29;20385;-77
2024/01/23 04:31:28;;;;;;;8.00;2.90;;;;;;;7.46;100.00;101201.56;4910306;29;20219;-76
2024/01/23 04:33:54;;;;;;;8.23;2.73;;;;;;;7.50;100.00;101206.78;4910666;29;20194;-77
2024/01/23 04:36:19;;;;;;;7.43;2.60;;;;;;;7.49;100.00;101218.75;4927622;29;20627;-77
2024/01/23 04:38:44;;;;;;;7.60;2.30;;;;;;;7.50;100.00;101206.78;4913964;29;20192;-77
2024/01/23 04:41:10;;;;;;;7.43;2.73;;;;;;;7.50;100.00;101207.63;4924520;29;20336;-78
2024/01/23 04:43:36;;;;;;;8.40;3.13;;;;;;;7.47;100.00;101208.44;4925849;29;20227;-78
2024/01/23 04:46:01;;;;;;;10.33;2.93;;;;;;;7.45;100.00;101204.13;4919252;29;20191;-78
2024/01/23 04:48:27;;;;;;;6.60;2.73;;;;;;;7.43;100.00;101201.50;4927046;29;20216;-78
2024/01/23 04:50:52;;;;;;;6.60;2.60;;;;;;;7.41;100.00;101199.75;4924098;29;20183;-78
2024/01/23 04:53:17;;;;;;;5.67;1.90;;;;;;;7.42;100.00;101207.47;4927238;29;20587;-77
2024/01/23 04:55:43;;;;;;;10.50;2.80;;;;;;;7.37;100.00;101214.28;4911721;29;20210;-77
2024/01/23 04:58:08;;;;;;;7.37;2.43;;;;;;;7.32;100.00;101226.19;4921038;29;20227;-78
2024/01/23 05:00:33;;;;;;;7.43;2.30;;;;;;;7.30;100.00;101218.44;4927716;29;20254;-77
2024/01/23 05:02:59;;;;;;;5.67;2.00;;;;;;;7.28;100.00;101225.25;4927720;29;21107;-78
2024/01/23 05:05:24;;;;;;;3.97;2.20;;;;;;;7.24;100.00;101226.03;4926496;29;20204;-77
2024/01/23 05:07:49;;;;;;;6.43;2.27;;;;;;;7.19;100.00;101245.66;4928055;29;20229;-77
2024/01/23 05:10:15;;;;;;;4.13;1.73;;;;;;;7.14;100.00;101253.28;4929948;29;20188;-78
2024/01/23 05:12:40;;;;;;;4.00;1.73;;;;;;;7.12;100.00;101257.53;4930492;29;20202;-78
2024/01/23 05:15:07;;;;;;;4.93;1.57;;;;;;;7.07;100.00;101261.72;4927516;29;20187;-77
2024/01/23 05:17:32;;;;;;;5.83;1.53;;;;;;;7.03;100.00;101265.06;4927820;29;20217;-77
2024/01/23 05:19:57;;;;;;;4.00;1.20;;;;;;;6.99;100.00;101270.97;4927104;29;20195;-77
2024/01/23 05:22:23;;;;;;;5.80;1.63;;;;;;;7.00;100.00;101290.72;4908762;29;20243;-78
2024/01/23 05:24:48;;;;;;;4.40;1.30;;;;;;;6.93;100.00;101305.19;4925864;29;20239;-77
2024/01/23 05:27:15;;;;;;;2.37;1.07;;;;;;;6.91;100.00;101313.72;4927892;29;20305;-77
2024/01/23 05:29:40;;;;;;;6.07;1.83;;;;;;;6.91;100.00;101326.56;4929112;29;20246;-77
2024/01/23 05:32:05;;;;;;;4.37;1.20;;;;;;;6.84;100.00;101338.44;4922903;29;20285;-77
2024/01/23 05:34:31;;;;;;;5.00;1.87;;;;;;;6.75;100.00;101338.19;4928796;29;20195;-77
2024/01/23 05:36:58;;;;;;;5.50;1.47;;;;;;;6.67;100.00;101353.44;4925464;29;20710;-78
2024/01/23 05:39:24;;;;;;;4.60;1.40;;;;;;;6.60;100.00;101365.28;4928685;29;20199;-77
2024/01/23 05:41:49;;;;;;;2.97;1.23;;;;;;;6.54;100.00;101366.00;4926282;29;20187;-79
2024/01/23 05:44:15;;;;;;;5.37;1.50;;;;;;;6.59;100.00;101375.56;4925330;29;20201;-77
2024/01/23 05:46:40;;;;;;;3.63;1.60;;;;;;;6.58;100.00;101378.94;4926090;29;20242;-77
2024/01/23 05:49:05;;;;;;;4.07;1.60;;;;;;;6.60;100.00;101387.56;4929228;29;20198;-77
2024/01/23 05:51:31;;;;;;;3.83;1.50;;;;;;;6.60;100.00;101395.28;4923533;29;20196;-77
2024/01/23 05:53:56;;;;;;;4.07;1.23;;;;;;;6.59;100.00;101407.28;4927791;29;20580;-78
2024/01/23 05:56:21;;;;;;;2.07;1.10;;;;;;;6.61;100.00;101412.47;4923427;29;20224;-78
2024/01/23 05:58:47;;;;;;;3.67;1.47;;;;;;;6.62;100.00;101416.78;4926522;29;20217;-78
2024/01/23 06:01:12;;;;;;;3.97;1.40;;;;;;;6.58;100.00;101426.09;4906022;29;20224;-77
2024/01/23 06:03:39;;;;;;;3.53;1.37;;;;;;;6.51;100.00;101429.38;4927545;29;20221;-77
2024/01/23 06:06:04;;;;;;;3.83;1.27;;;;;;;6.38;100.00;101436.75;4928027;29;20751;-78
2024/01/23 06:08:29;;;;;;;3.90;1.37;;;;;;;6.28;100.00;101439.88;4928417;29;20214;-77
2024/01/23 06:10:55;;;;;;;4.03;1.30;;;;;;;6.17;100.00;101454.16;4932769;29;20238;-78
2024/01/23 06:13:20;;;;;;;3.03;1.10;;;;;;;6.05;100.00;101455.56;4931291;29;20201;-77
2024/01/23 06:15:46;;;;;;;3.50;1.27;;;;;;;6.00;100.00;101458.81;4930117;29;20660;-77
2024/01/23 06:18:12;;;;;;;4.13;1.23;;;;;;;5.93;100.00;101460.31;4913650;29;20730;-77
2024/01/23 06:20:37;;;;;;;3.57;1.10;;;;;;;5.89;100.00;101459.38;4931479;29;20196;-77
2024/01/23 06:23:03;;;;;;;3.70;1.20;;;;;;;5.85;100.00;101462.66;4930437;29;21051;-77
2024/01/23 06:25:29;;;;;;;1.93;1.20;;;;;;;5.86;100.00;101466.97;4913978;29;20679;-76
2024/01/23 06:27:55;;;;;;;4.13;1.20;;;;;;;5.83;100.00;101484.88;4928670;29;20211;-78
2024/01/23 06:30:20;;;;;;;4.73;1.67;;;;;;;5.80;100.00;101488.22;4942833;29;20191;-77
2024/01/23 06:32:46;;;;;;;4.33;1.20;;;;;;;5.83;100.00;101487.44;4915762;29;20273;-78
2024/01/23 06:35:11;;;;;;;5.33;1.60;;;;;;;5.88;100.00;101485.00;4919954;29;20280;-77
2024/01/23 06:37:36;;;;;;;2.77;1.30;;;;;;;5.97;100.00;101486.97;4933012;29;20224;-77
2024/01/23 06:40:02;;;;;;;3.37;1.20;;;;;;;5.87;100.00;101481.56;4917468;29;20728;-77
2024/01/23 06:42:27;;;;;;;6.77;1.63;;;;;;;5.82;100.00;101484.84;4930705;29;20252;-77
2024/01/23 06:44:53;;;;;;;8.93;2.23;;;;;;;5.80;100.00;101485.66;4932241;29;20200;-76
2024/01/23 06:47:18;;;;;;;2.83;1.27;;;;;;;5.75;100.00;101486.31;4934435;29;20227;-77
2024/01/23 06:49:43;;;;;;;3.23;1.70;;;;;;;5.70;100.00;101501.59;4912691;29;20192;-76
2024/01/23 06:52:10;;;;;;;3.57;1.50;;;;;;;5.64;100.00;101509.13;4945345;29;20200;-77
2024/01/23 06:54:36;;;;;;;4.60;1.90;;;;;;;5.60;100.00;101520.13;4944148;29;20175;-78
2024/01/23 06:57:01;;;;;;;5.20;1.73;;;;;;;5.54;100.00;101509.63;4924393;29;20215;-77
2024/01/23 06:59:27;;;;;;;6.60;2.03;;;;;;;5.51;100.00;101510.44;4926302;29;22264;-77
2024/01/23 07:01:53;;;;;;;5.40;2.57;;;;;;;5.43;100.00;101520.44;4932303;29;20198;-77
2024/01/23 07:04:18;;;;;;;6.00;2.57;;;;;;;5.40;100.00;101535.75;4926643;29;20587;-77
2024/01/23 07:06:43;;;;;;;6.93;2.43;;;;;;;5.36;100.00;101535.59;4937164;29;20830;-77
2024/01/23 07:09:09;;;;;;;7.30;3.20;;;;;;;5.34;100.00;101539.00;4910911;29;20204;-76
2024/01/23 07:11:34;;;;;;;6.97;2.80;;;;;;;5.30;100.00;101551.69;4925370;29;20201;-78
2024/01/23 07:14:00;;;;;;;6.47;3.57;;;;;;;5.24;100.00;101551.47;4928420;29;20562;-77
2024/01/23 07:16:25;;;;;;;5.50;3.17;;;;;;;5.24;100.00;101557.50;4935525;29;20225;-77
2024/01/23 07:18:50;;;;;;;16.83;12.73;;;;;;;5.21;100.00;101551.38;4909338;29;20185;-78
2024/01/23 07:21:16;;;;;;;26.40;20.97;;;;;;;5.18;100.00;101541.88;4932018;29;20669;-77
2024/01/23 07:23:41;;;;;;;19.30;13.73;;;;;;;5.17;100.00;101558.09;4933600;29;20196;-78
2024/01/23 07:26:06;;;;;;;9.60;7.00;;;;;;;5.16;100.00;101554.66;4932225;29;20329;-78
2024/01/23 07:28:32;;;;;;;7.03;2.90;;;;;;;5.17;100.00;101555.53;4929667;29;20295;-77
2024/01/23 07:30:57;;;;;;;6.50;2.73;;;;;;;5.18;100.00;101564.97;4930906;29;20546;-77
2024/01/23 07:33:22;;;;;;;6.30;2.90;;;;;;;5.19;100.00;101564.16;4929672;29;20201;-77
2024/01/23 07:35:49;;;;;;;9.13;3.10;;;;;;;5.21;100.00;101572.78;4939412;29;20188;-78
2024/01/23 07:38:15;;;;;;;8.93;2.70;;;;;;;5.24;100.00;101578.03;4931052;29;20225;-77
2024/01/23 07:40:41;;;;;;;10.93;2.87;;;;;;;5.25;100.00;101572.06;4928791;29;20564;-77
2024/01/23 07:43:07;;;;;;;8.47;2.60;;;;;;;5.33;100.00;101583.44;4932619;29;20242;-79
2024/01/23 07:45:32;;;;;;;5.33;1.97;;;;;;;5.32;100.00;101576.56;4908676;29;20241;-77
2024/01/23 07:47:57;;;;;;;8.13;2.97;;;;;;;5.33;100.00;101588.59;4924241;29;20290;-77
2024/01/23 07:50:23;;;;;;;7.10;2.47;;;;;;;5.36;100.00;101584.38;4927846;29;20225;-78
2024/01/23 07:52:48;;;;;;;8.17;2.67;;;;;;;5.39;100.00;101576.78;4912340;29;20958;-78
2024/01/23 07:55:14;;;;;;;6.93;2.73;;;;;;;5.45;100.00;101582.09;4929596;29;20194;-78
2024/01/23 07:57:39;;;;;;;7.27;2.10;;;;;;;5.44;100.00;101588.09;4929178;29;20586;-77
2024/01/23 08:00:05;;;;;;;5.67;2.27;;;;;;;5.47;100.00;101598.44;4912928;29;20181;-78
2024/01/23 08:02:32;;;;;;;10.43;2.70;;;;;;;5.50;100.00;101601.13;4929100;29;20228;-77
2024/01/23 08:04:57;;;;;;;6.90;2.70;;;;;;;5.57;100.00;101604.75;4925503;29;20200;-77
2024/01/23 08:07:22;;;;;;;6.03;2.60;;;;;;;5.57;100.00;101610.78;4917006;29;20228;-77
2024/01/23 08:09:48;;;;;;;9.90;2.80;;;;;;;5.63;100.00;101605.84;4927785;29;20191;-78
2024/01/23 08:12:15;;;;;;;8.43;2.87;;;;;;;5.61;100.00;101612.59;4928432;29;20218;-77
2024/01/23 08:14:40;;;;;;;7.77;2.90;;;;;;;5.60;100.00;101622.84;4928436;29;20942;-77
2024/01/23 08:17:06;;;;;;;9.07;3.00;;;;;;;5.58;100.00;101630.50;4928640;29;20264;-77
2024/01/23 08:19:31;;;;;;;9.37;3.10;;;;;;;5.58;100.00;101638.22;4930293;29;20673;-77
2024/01/23 08:21:56;;;;;;;8.33;3.17;;;;;;;5.59;100.00;101636.50;4929640;29;20191;-77
2024/01/23 08:24:21;;;;;;;9.87;3.17;;;;;;;5.62;100.00;101634.91;4929847;29;20351;-77
2024/01/23 08:26:47;;;;;;;6.00;2.33;;;;;;;5.62;100.00;101640.03;4912166;29;20216;-77
2024/01/23 08:29:13;;;;;;;8.63;2.53;;;;;;;5.64;100.00;101640.97;4929170;29;20241;-77
2024/01/23 08:31:38;;;;;;;6.43;2.80;;;;;;;5.69;100.00;101645.41;4924665;29;20194;-78
2024/01/23 08:34:04;;;;;;;5.27;2.30;;;;;;;5.72;100.00;101651.50;4911489;29;20199;-78
2024/01/23 08:36:29;;;;;;;7.07;2.40;;;;;;;5.77;100.00;101643.94;4912211;29;20893;-78
2024/01/23 08:38:54;;;;;;;5.67;2.30;;;;;;;5.79;100.00;101645.75;4930100;29;20201;-78
2024/01/23 08:41:20;;;;;;;6.57;2.30;;;;;;;5.83;100.00;101663.81;4930315;29;20246;-77
2024/01/23 08:43:45;;;;;;;9.20;2.80;;;;;;;5.90;100.00;101658.06;4921792;29;20677;-77
2024/01/23 08:46:13;;;;;;;6.23;2.03;;;;;;;6.01;100.00;101664.44;4913305;29;20675;-77
2024/01/23 08:48:39;;;;;;;9.33;2.90;;;;;;;6.09;100.00;101664.69;4930678;29;20286;-78
2024/01/23 08:51:05;;;;;;;7.03;2.60;;;;;;;6.14;100.00;101670.88;4930623;29;20198;-78
2024/01/23 08:53:30;;;;;;;7.37;2.30;;;;;;;6.18;100.00;101666.69;4929994;29;20211;-77
2024/01/23 08:55:55;;;;;;;7.20;2.40;;;;;;;6.16;100.00;101670.91;4929119;29;20207;-78
2024/01/23 08:58:21;;;;;;;7.03;2.30;;;;;;;6.17;100.00;101675.22;4910451;29;20218;-77
2024/01/23 09:00:47;;;;;;;8.30;3.20;;;;;;;6.23;100.00;101668.56;4928007;29;20647;-77
2024/01/23 09:03:13;;;;;;;13.33;3.73;;;;;;;6.32;100.00;101678.25;4915289;29;20217;-77
2024/01/23 09:05:38;;;;;;;7.63;3.00;;;;;;;6.32;100.00;101685.97;4932353;29;20192;-77
2024/01/23 09:08:04;;;;;;;6.57;3.37;;;;;;;6.40;100.00;101684.53;4912817;29;20659;-78
2024/01/23 09:10:29;;;;;;;7.53;2.77;;;;;;;6.44;100.00;101697.47;4930349;29;20207;-77
2024/01/23 09:12:55;;;;;;;9.23;3.60;;;;;;;6.50;100.00;101701.13;4929308;29;20197;-77
2024/01/23 09:15:20;;;;;;;8.93;2.77;;;;;;;6.55;100.00;101704.69;4923173;29;20246;-78
2024/01/23 09:17:45;;;;;;;8.17;3.07;;;;;;;6.62;100.00;101716.03;4930305;29;20222;-78
2024/01/23 09:20:11;;;;;;;10.27;3.47;;;;;;;6.65;100.00;101718.72;4932375;29;20197;-78
2024/01/23 09:22:36;;;;;;;12.67;3.63;;;;;;;6.70;100.00;101726.56;4927736;29;20693;-77
2024/01/23 09:25:05;;;;;;;7.33;2.83;;;;;;;6.81;100.00;101727.75;4924599;29;20218;-77
2024/01/23 09:27:30;;;;;;;6.63;3.20;;;;;;;6.94;100.00;101725.56;4928504;29;20226;-78
2024/01/23 09:29:55;;;;;;;7.97;3.17;;;;;;;7.00;100.00;101726.59;4926347;29;20192;-77
2024/01/23 09:32:21;;;;;;;13.60;3.73;;;;;;;7.08;100.00;101744.84;4926928;29;20241;-77
2024/01/23 09:34:47;;;;;;;8.70;3.63;;;;;;;7.17;100.00;101745.09;4921844;29;20218;-78
2024/01/23 09:37:13;;;;;;;10.87;3.80;;;;;;;7.25;100.00;101744.47;4913844;29;20226;-77
2024/01/23 09:39:38;;;;;;;8.87;3.40;;;;;;;7.29;100.00;101754.88;4928980;29;20678;-78
2024/01/23 09:42:04;;;;;;;8.40;3.03;;;;;;;7.27;100.00;101761.69;4927182;29;20199;-77
2024/01/23 09:44:30;;;;;;;12.10;3.50;;;;;;;7.20;100.00;101764.91;4927525;29;20205;-77
2024/01/23 09:46:57;;;;;;;8.67;3.17;;;;;;;7.14;100.00;101775.03;4927216;29;20216;-77
2024/01/23 09:49:22;;;;;;;8.60;3.43;;;;;;;7.08;100.00;101765.44;4925750;29;20219;-76
2024/01/23 09:51:49;;;;;;;7.37;3.00;;;;;;;6.97;100.00;101769.38;4928189;29;20274;-79
2024/01/23 09:54:15;;;;;;;10.63;3.37;;;;;;;6.96;100.00;101765.94;4926566;29;20202;-77
2024/01/23 09:56:41;;;;;;;8.43;2.87;;;;;;;6.92;100.00;101765.81;4908146;29;20600;-78
2024/01/23 09:59:09;;;;;;;8.07;3.47;;;;;;;6.90;100.00;101762.31;4907951;29;20791;-77
2024/01/23 10:01:35;;;;;;;10.53;3.90;;;;;;;6.95;100.00;101753.91;4925756;29;20231;-77
2024/01/23 10:04:04;;;;;;;9.13;3.13;;;;;;;7.00;100.00;101752.34;4926312;29;20203;-77
2024/01/23 10:06:30;;;;;;;13.03;3.83;;;;;;;7.07;100.00;101748.25;4930010;29;20269;-78
2024/01/23 10:08:56;;;;;;;8.23;3.13;;;;;;;7.16;100.00;101753.66;4930601;29;20240;-79
2024/01/23 10:11:21;;;;;;;12.10;3.77;;;;;;;7.33;100.00;101764.41;4911596;29;20711;-77
2024/01/23 10:13:47;;;;;;;9.33;3.30;;;;;;;7.44;100.00;101767.31;4941884;29;20564;-77
2024/01/23 10:16:14;;;;;;;8.47;3.27;;;;;;;7.61;100.00;101759.16;4927226;29;20204;-77
2024/01/23 10:18:40;;;;;;;9.47;3.17;;;;;;;7.75;100.00;101759.53;4931439;29;20241;-78
2024/01/23 10:21:05;;;;;;;11.23;4.00;;;;;;;7.85;100.00;101758.94;4930317;29;20195;-77
2024/01/23 10:23:34;;;;;;;11.77;3.33;;;;;;;7.97;100.00;101760.09;4917463;29;20639;-77
2024/01/23 10:25:59;;;;;;;10.70;3.90;;;;;;;8.08;100.00;101756.94;4911984;29;20203;-77
2024/01/23 10:28:25;;;;;;;10.23;3.67;;;;;;;8.17;100.00;101750.25;4927715;29;20618;-77
2024/01/23 10:30:50;;;;;;;9.73;3.73;;;;;;;8.26;100.00;101752.19;4923854;29;20572;-77
2024/01/23 10:33:16;;;;;;;7.67;3.20;;;;;;;8.39;100.00;101756.84;4928016;29;20210;-78
2024/01/23 10:35:42;;;;;;;11.13;3.63;;;;;;;8.49;100.00;101752.78;4928710;29;20207;-77
2024/01/23 10:38:10;;;;;;;10.90;3.93;;;;;;;8.57;100.00;101740.06;4929377;29;20247;-77
2024/01/23 10:40:36;;;;;;;11.77;3.90;;;;;;;8.68;100.00;101744.63;4927713;29;20226;-77
2024/01/23 10:43:03;;;;;;;8.27;3.30;;;;;;;8.77;100.00;101740.53;4928170;29;20638;-78
2024/01/23 10:45:31;;;;;;;9.77;3.40;;;;;;;8.86;100.00;101740.72;4927865;29;20195;-79
2024/01/23 10:47:59;;;;;;;9.83;3.50;;;;;;;8.89;100.00;101732.16;4929095;29;20216;-78
2024/01/23 10:50:24;;;;;;;8.63;3.37;;;;;;;8.99;100.00;101722.06;4928340;29;21166;-77
2024/01/23 10:52:49;;;;;;;9.63;3.80;;;;;;;9.04;100.00;101710.97;4926025;29;20226;-77
2024/01/23 10:55:16;;;;;;;9.13;3.60;;;;;;;9.16;100.00;101716.38;4929049;29;20195;-77
2024/01/23 10:57:46;;;;;;;8.60;3.53;;;;;;;9.29;100.00;101718.34;4928297;29;20274;-77
2024/01/23 11:00:14;;;;;;;10.30;3.67;;;;;;;9.46;100.00;101702.28;4937493;29;20192;-77
2024/01/23 11:02:50;;;;;;;9.43;4.00;;;;;;;9.65;100.00;101715.56;4929323;29;20191;-78
2024/01/23 11:05:20;;;;;;;7.67;3.20;;;;;;;9.85;100.00;101713.31;4933880;29;20206;-77
2024/01/23 11:07:56;;;;;;;7.33;3.10;;;;;;;10.06;100.00;101725.72;4927858;29;20244;-78
2024/01/23 11:10:41;;;;;;;8.00;3.67;;;;;;;10.30;100.00;101719.19;4932956;29;20246;-76
2024/01/23 11:13:15;;;;;;;7.80;3.77;;;;;;;10.48;100.00;101729.84;4937001;29;20200;-77
2024/01/23 11:15:40;;;;;;;6.47;3.20;;;;;;;10.41;100.00;101711.63;4934996;29;20282;-79
2024/01/23 11:18:28;;;;;;;11.50;4.00;;;;;;;10.57;100.00;101711.00;4932324;29;20603;-77